createdAt,value
2022-09-15T00:01:29.623Z,11.23
2022-09-15T00:03:31.584Z,10.07
2022-09-15T00:05:33.106Z,9.85
2022-09-15T00:07:34.831Z,9.80
2022-09-15T00:09:36.624Z,10.30
2022-09-15T00:11:38.202Z,10.27
2022-09-15T00:13:40.087Z,10.00
2022-09-15T00:15:42.305Z,11.18
2022-09-15T00:17:47.830Z,10.95
2022-09-15T00:19:49.486Z,10.25
2022-09-15T00:21:51.230Z,10.93
2022-09-15T00:23:53.053Z,11.60
2022-09-15T00:25:54.533Z,10.65
2022-09-15T00:27:56.641Z,11.10
2022-09-15T00:29:58.213Z,11.15
2022-09-15T00:31:59.701Z,11.23
2022-09-15T00:34:05.047Z,11.43
2022-09-15T00:36:08.326Z,11.25
2022-09-15T00:38:11.037Z,11.65
2022-09-15T00:40:12.882Z,12.10
2022-09-15T00:42:15.865Z,11.18
2022-09-15T00:46:21.221Z,11.82
2022-09-15T00:48:23.086Z,10.85
2022-09-15T00:50:24.696Z,11.82
2022-09-15T00:52:28.926Z,11.80
2022-09-15T00:54:37.749Z,11.80
2022-09-15T00:56:41.594Z,11.93
2022-09-15T00:58:45.097Z,11.15
2022-09-15T01:00:50.819Z,12.18
2022-09-15T01:02:53.172Z,11.80
2022-09-15T01:04:58.332Z,11.75
2022-09-15T01:07:03.904Z,12.10
2022-09-15T01:09:08.539Z,11.90
2022-09-15T01:11:10.288Z,12.15
2022-09-15T01:13:12.786Z,11.93
2022-09-15T01:15:15.566Z,11.90
2022-09-15T01:19:37.345Z,11.85
2022-09-15T01:21:48.365Z,11.82
2022-09-15T01:24:08.780Z,12.40
2022-09-15T01:26:22.316Z,12.20
2022-09-15T01:28:43.762Z,11.23
2022-09-15T01:31:06.009Z,11.13
2022-09-15T01:33:10.516Z,11.93
2022-09-15T01:35:20.806Z,11.32
2022-09-15T01:37:28.941Z,13.23
2022-09-15T01:39:33.153Z,11.90
2022-09-15T01:41:44.297Z,12.80
2022-09-15T01:43:49.212Z,12.82
2022-09-15T01:45:51.395Z,12.40
2022-09-15T01:47:54.566Z,12.98
2022-09-15T01:50:08.154Z,13.00
2022-09-15T01:52:09.975Z,12.45
2022-09-15T01:54:12.376Z,12.65
2022-09-15T01:56:14.452Z,13.77
2022-09-15T01:58:16.474Z,13.10
2022-09-15T02:00:18.139Z,13.25
2022-09-15T02:02:26.699Z,13.52
2022-09-15T02:04:31.096Z,12.82
2022-09-15T02:06:37.062Z,12.98
2022-09-15T02:08:45.149Z,13.55
2022-09-15T02:10:51.247Z,13.30
2022-09-15T02:12:55.884Z,13.70
2022-09-15T02:15:03.431Z,13.77
2022-09-15T02:17:05.445Z,12.82
2022-09-15T02:19:11.066Z,13.40
2022-09-15T02:21:19.695Z,14.07
2022-09-15T02:23:26.225Z,14.98
2022-09-15T02:25:30.624Z,14.95
2022-09-15T02:27:34.164Z,15.20
2022-09-15T02:29:36.287Z,14.23
2022-09-15T02:31:39.820Z,14.00
2022-09-15T02:33:44.237Z,14.80
2022-09-15T02:35:46.072Z,15.20
2022-09-15T02:37:48.378Z,15.02
2022-09-15T02:39:58.084Z,15.88
2022-09-15T02:42:02.301Z,14.82
2022-09-15T02:44:03.960Z,14.23
2022-09-15T02:46:05.816Z,15.23
2022-09-15T02:48:09.642Z,15.48
2022-09-15T02:50:11.598Z,15.20
2022-09-15T02:52:13.379Z,16.23
2022-09-15T02:54:14.987Z,18.58
2022-09-15T02:56:18.072Z,18.23
2022-09-15T03:00:21.396Z,17.27
2022-09-15T03:02:23.515Z,18.02
2022-09-15T03:04:25.364Z,18.30
2022-09-15T03:06:30.653Z,18.33
2022-09-15T03:08:32.205Z,17.80
2022-09-15T03:10:33.937Z,17.52
2022-09-15T03:12:39.309Z,17.75
2022-09-15T03:14:41.105Z,18.25
2022-09-15T03:16:42.940Z,17.45
2022-09-15T03:18:44.758Z,17.83
2022-09-15T03:20:46.450Z,18.55
2022-09-15T03:22:48.548Z,18.13
2022-09-15T03:24:50.103Z,18.20
2022-09-15T03:26:51.611Z,19.65
2022-09-15T03:28:53.563Z,18.17
2022-09-15T03:30:55.580Z,18.52
2022-09-15T03:32:57.719Z,18.97
2022-09-15T03:34:59.596Z,18.90
2022-09-15T03:37:01.179Z,19.38
2022-09-15T03:39:02.731Z,19.33
2022-09-15T03:41:07.724Z,19.73
2022-09-15T03:43:10.146Z,19.45
2022-09-15T03:45:11.765Z,20.40
2022-09-15T03:47:13.577Z,19.75
2022-09-15T03:49:15.315Z,20.00
2022-09-15T03:51:17.267Z,19.20
2022-09-15T03:53:20.113Z,18.40
2022-09-15T03:55:22.024Z,19.27
2022-09-15T03:57:23.652Z,18.98
2022-09-15T03:59:26.134Z,18.73
2022-09-15T04:01:28.422Z,18.38
2022-09-15T04:03:31.671Z,18.23
2022-09-15T04:05:33.747Z,18.98
2022-09-15T04:07:35.320Z,18.63
2022-09-15T04:09:37.320Z,17.70
2022-09-15T04:11:39.643Z,18.30
2022-09-15T04:13:41.993Z,16.83
2022-09-15T04:15:44.495Z,17.73
2022-09-15T04:17:46.637Z,17.08
2022-09-15T04:19:48.607Z,17.50
2022-09-15T04:21:50.223Z,16.55
2022-09-15T04:23:52.714Z,17.57
2022-09-15T04:25:55.994Z,16.77
2022-09-15T04:27:57.764Z,16.08
2022-09-15T04:29:59.621Z,15.77
2022-09-15T04:32:01.302Z,15.30
2022-09-15T04:34:02.857Z,15.35
2022-09-15T04:36:06.700Z,15.30
2022-09-15T04:38:08.498Z,15.43
2022-09-15T04:40:11.349Z,15.90
2022-09-15T04:42:13.256Z,14.65
2022-09-15T04:44:15.154Z,16.00
2022-09-15T04:46:17.088Z,14.20
2022-09-15T04:48:19.157Z,14.20
2022-09-15T04:50:20.907Z,14.60
2022-09-15T04:52:23.386Z,14.27
2022-09-15T04:54:25.539Z,14.38
2022-09-15T04:56:27.785Z,14.68
2022-09-15T04:58:29.454Z,14.70
2022-09-15T05:00:32.745Z,13.57
2022-09-15T05:04:35.803Z,13.13
2022-09-15T05:06:38.157Z,14.43
2022-09-15T05:08:40.027Z,14.77
2022-09-15T05:10:41.630Z,14.43
2022-09-15T05:12:43.454Z,14.80
2022-09-15T05:14:45.281Z,14.38
2022-09-15T05:16:46.946Z,13.77
2022-09-15T05:18:49.881Z,14.30
2022-09-15T05:20:57.746Z,14.35
2022-09-15T05:22:59.567Z,14.50
2022-09-15T05:25:01.319Z,13.63
2022-09-15T05:27:03.016Z,14.57
2022-09-15T05:29:04.600Z,12.98
2022-09-15T05:31:10.688Z,13.85
2022-09-15T05:33:12.386Z,12.80
2022-09-15T05:35:14.042Z,12.10
2022-09-15T05:37:16.211Z,12.30
2022-09-15T05:39:18.203Z,11.73
2022-09-15T05:41:20.783Z,12.02
2022-09-15T05:43:23.146Z,11.77
2022-09-15T05:45:24.733Z,11.50
2022-09-15T05:47:26.840Z,12.73
2022-09-15T05:49:29.470Z,12.15
2022-09-15T05:51:31.146Z,11.32
2022-09-15T05:53:35.869Z,11.38
2022-09-15T05:55:38.060Z,10.65
2022-09-15T05:57:40.131Z,11.40
2022-09-15T05:59:43.831Z,10.13
2022-09-15T06:01:46.102Z,11.05
2022-09-15T06:03:47.743Z,10.35
2022-09-15T06:05:49.900Z,11.18
2022-09-15T06:07:55.378Z,14.87
2022-09-15T06:09:57.083Z,10.20
2022-09-15T06:11:58.683Z,9.82
2022-09-15T06:14:02.820Z,9.88
2022-09-15T06:16:06.393Z,9.45
2022-09-15T06:18:08.061Z,8.63
2022-09-15T06:20:10.015Z,9.00
2022-09-15T06:22:11.955Z,9.05
2022-09-15T06:24:13.522Z,8.90
2022-09-15T06:26:16.711Z,8.40
2022-09-15T06:30:19.802Z,7.75
2022-09-15T06:32:21.745Z,7.90
2022-09-15T06:34:23.780Z,7.28
2022-09-15T06:36:27.239Z,8.33
2022-09-15T06:38:29.407Z,7.25
2022-09-15T06:40:30.967Z,9.80
2022-09-15T06:42:32.595Z,7.15
2022-09-15T06:44:34.436Z,7.65
2022-09-15T06:46:36.197Z,6.97
2022-09-15T06:48:38.456Z,7.03
2022-09-15T06:50:40.357Z,7.53
2022-09-15T06:52:43.495Z,8.40
2022-09-15T06:54:45.501Z,8.52
2022-09-15T06:56:47.330Z,7.75
2022-09-15T06:58:49.291Z,6.80
2022-09-15T07:00:55.371Z,6.70
2022-09-15T07:02:57.292Z,5.70
2022-09-15T07:04:59.320Z,10.03
2022-09-15T07:07:00.832Z,20.95
2022-09-15T07:09:03.663Z,6.15
2022-09-15T07:11:05.462Z,6.75
2022-09-15T07:13:07.008Z,5.75
2022-09-15T07:15:09.235Z,5.75
2022-09-15T07:17:10.739Z,5.53
2022-09-15T07:19:12.551Z,5.45
2022-09-15T07:21:15.609Z,5.43
2022-09-15T07:23:17.999Z,5.03
2022-09-15T07:25:20.288Z,4.43
2022-09-15T07:27:26.194Z,5.32
2022-09-15T07:29:27.703Z,5.20
2022-09-15T07:31:31.498Z,4.97
2022-09-15T07:33:33.698Z,5.28
2022-09-15T07:35:35.366Z,4.55
2022-09-15T07:37:36.966Z,23.17
2022-09-15T07:39:38.679Z,5.72
2022-09-15T07:41:40.278Z,4.50
2022-09-15T07:43:45.624Z,5.13
2022-09-15T07:45:48.818Z,4.68
2022-09-15T07:47:50.405Z,4.35
2022-09-15T07:49:51.919Z,4.78
2022-09-15T07:51:53.772Z,4.70
2022-09-15T07:53:55.510Z,20.30
2022-09-15T07:55:57.578Z,4.13
2022-09-15T07:58:01.093Z,4.05
2022-09-15T08:00:03.978Z,4.03
2022-09-15T08:02:05.538Z,3.80
2022-09-15T08:04:08.588Z,4.03
2022-09-15T08:06:10.906Z,3.55
2022-09-15T08:10:14.377Z,3.60
2022-09-15T08:12:16.499Z,3.75
2022-09-15T08:14:18.884Z,3.10
2022-09-15T08:18:22.393Z,3.35
2022-09-15T08:20:23.989Z,3.00
2022-09-15T08:22:25.794Z,3.20
2022-09-15T08:24:27.739Z,3.10
2022-09-15T08:26:29.383Z,3.50
2022-09-15T08:28:31.193Z,15.00
2022-09-15T08:30:32.734Z,2.97
2022-09-15T08:32:34.264Z,3.30
2022-09-15T08:34:36.028Z,3.20
2022-09-15T08:36:37.636Z,3.25
2022-09-15T08:38:40.485Z,3.28
2022-09-15T08:40:43.622Z,3.15
2022-09-15T08:42:47.171Z,3.00
2022-09-15T08:44:55.557Z,3.30
2022-09-15T08:47:23.617Z,3.13
2022-09-15T08:49:49.966Z,3.35
2022-09-15T08:51:52.684Z,2.90
2022-09-15T08:53:57.791Z,3.35
2022-09-15T08:56:00.224Z,3.38
2022-09-15T08:58:01.914Z,3.22
2022-09-15T09:00:04.026Z,3.10
2022-09-15T09:02:11.948Z,3.70
2022-09-15T09:04:17.543Z,3.00
2022-09-15T09:06:32.430Z,2.40
2022-09-15T09:08:45.405Z,2.90
2022-09-15T09:10:46.961Z,2.60
2022-09-15T09:12:52.729Z,2.83
2022-09-15T09:14:57.128Z,2.63
2022-09-15T09:16:58.777Z,2.72
2022-09-15T09:19:23.834Z,2.60
2022-09-15T09:21:35.255Z,2.67
2022-09-15T09:23:58.761Z,2.65
2022-09-15T09:26:02.180Z,2.53
2022-09-15T09:28:05.915Z,2.45
2022-09-15T09:30:14.237Z,2.28
2022-09-15T09:32:25.386Z,2.30
2022-09-15T09:34:47.154Z,2.33
2022-09-15T09:36:54.060Z,2.30
2022-09-15T09:38:56.295Z,1.90
2022-09-15T09:41:02.058Z,1.92
2022-09-15T09:43:04.243Z,2.30
2022-09-15T09:45:07.543Z,2.15
2022-09-15T09:47:09.592Z,1.88
2022-09-15T09:49:16.388Z,2.28
2022-09-15T09:51:38.511Z,2.63
2022-09-15T09:53:40.111Z,2.35
2022-09-15T09:55:41.717Z,2.35
2022-09-15T09:57:43.658Z,2.10
2022-09-15T09:59:49.413Z,2.00
2022-09-15T10:02:09.535Z,2.17
2022-09-15T10:04:19.045Z,2.67
2022-09-15T10:06:24.977Z,2.80
2022-09-15T10:08:27.439Z,2.47
2022-09-15T10:10:32.199Z,2.80
2022-09-15T10:12:42.554Z,2.35
2022-09-15T10:14:52.028Z,2.38
2022-09-15T10:16:57.731Z,1.92
2022-09-15T10:18:59.481Z,2.20
2022-09-15T10:21:02.530Z,2.50
2022-09-15T10:23:05.762Z,2.28
2022-09-15T10:25:19.391Z,2.25
2022-09-15T10:27:26.074Z,2.40
2022-09-15T10:29:36.567Z,2.10
2022-09-15T10:31:38.722Z,2.22
2022-09-15T10:33:42.548Z,2.80
2022-09-15T10:35:45.580Z,2.65
2022-09-15T10:38:05.003Z,2.25
2022-09-15T10:40:30.132Z,2.38
2022-09-15T10:42:31.883Z,3.70
2022-09-15T10:44:47.955Z,2.38
2022-09-15T10:46:59.129Z,2.35
2022-09-15T10:49:19.486Z,2.40
2022-09-15T10:51:21.124Z,2.85
2022-09-15T10:53:29.117Z,2.45
2022-09-15T10:55:51.514Z,2.85
2022-09-15T10:58:12.797Z,2.40
2022-09-15T11:00:20.977Z,3.03
2022-09-15T11:02:25.720Z,3.00
2022-09-15T11:04:30.255Z,2.70
2022-09-15T11:06:34.549Z,3.10
2022-09-15T11:08:52.191Z,2.67
2022-09-15T11:10:56.975Z,2.80
2022-09-15T11:13:03.924Z,3.63
2022-09-15T11:15:14.614Z,2.75
2022-09-15T11:17:27.043Z,2.65
2022-09-15T11:19:49.498Z,2.88
2022-09-15T11:21:55.171Z,3.55
2022-09-15T11:24:16.750Z,3.10
2022-09-15T11:26:44.879Z,2.83
2022-09-15T11:28:52.889Z,3.13
2022-09-15T11:31:09.447Z,3.08
2022-09-15T11:33:14.134Z,2.97
2022-09-15T11:35:34.854Z,2.67
2022-09-15T11:37:39.164Z,2.85
2022-09-15T11:40:01.745Z,2.58
2022-09-15T11:42:04.688Z,2.67
2022-09-15T11:44:06.358Z,3.22
2022-09-15T11:46:13.079Z,3.08
2022-09-15T11:48:28.616Z,2.28
2022-09-15T11:50:32.657Z,3.00
2022-09-15T11:52:49.722Z,2.80
2022-09-15T11:55:03.695Z,3.03
2022-09-15T11:57:05.722Z,2.70
2022-09-15T11:59:14.985Z,2.37
2022-09-15T12:01:19.618Z,2.50
2022-09-15T12:03:38.991Z,2.63
2022-09-15T12:05:51.726Z,3.13
2022-09-15T12:07:56.408Z,3.33
2022-09-15T12:10:04.910Z,3.15
2022-09-15T12:12:08.421Z,2.85
2022-09-15T12:14:30.605Z,2.75
2022-09-15T12:16:33.445Z,2.92
2022-09-15T12:20:48.487Z,2.65
2022-09-15T12:22:55.195Z,3.03
2022-09-15T12:25:05.536Z,3.50
2022-09-15T12:27:14.400Z,3.17
2022-09-15T12:29:22.136Z,2.33
2022-09-15T12:31:31.157Z,3.33
2022-09-15T12:33:42.319Z,3.15
2022-09-15T12:35:43.886Z,2.45
2022-09-15T12:37:46.533Z,2.67
2022-09-15T12:41:57.691Z,2.97
2022-09-15T12:44:05.051Z,2.47
2022-09-15T12:46:16.671Z,3.40
2022-09-15T12:48:22.480Z,3.25
2022-09-15T12:50:27.691Z,2.80
2022-09-15T12:52:29.491Z,2.90
2022-09-15T12:54:33.072Z,2.80
2022-09-15T12:56:35.520Z,3.20
2022-09-15T12:58:47.806Z,2.72
2022-09-15T13:01:16.609Z,2.50
2022-09-15T13:03:26.644Z,2.97
2022-09-15T13:05:46.757Z,3.00
2022-09-15T13:07:57.570Z,3.00
2022-09-15T13:10:08.363Z,2.90
2022-09-15T13:12:13.124Z,2.70
2022-09-15T13:14:26.958Z,2.40
2022-09-15T13:16:33.964Z,2.70
2022-09-15T13:18:36.058Z,3.10
2022-09-15T13:20:39.350Z,3.00
2022-09-15T13:22:43.890Z,2.67
2022-09-15T13:24:52.435Z,2.55
2022-09-15T13:26:55.758Z,2.72
2022-09-15T13:28:58.032Z,2.53
2022-09-15T13:31:08.938Z,3.00
2022-09-15T13:35:03.139Z,2.53
2022-09-15T13:35:51.610Z,2.47
2022-09-15T13:38:20.187Z,2.90
2022-09-15T13:40:39.901Z,2.88
2022-09-15T13:42:50.231Z,3.17
2022-09-15T13:45:16.969Z,2.88
2022-09-15T13:47:41.690Z,2.58
2022-09-15T13:49:49.192Z,3.40
2022-09-15T13:51:54.557Z,3.13
2022-09-15T13:54:05.164Z,3.60
2022-09-15T13:56:09.544Z,2.80
2022-09-15T14:00:44.226Z,2.85
2022-09-15T14:04:54.004Z,2.95
2022-09-15T14:07:00.071Z,2.83
2022-09-15T14:09:06.246Z,2.55
2022-09-15T14:11:10.342Z,3.05
2022-09-15T14:13:14.403Z,6.18
2022-09-15T14:15:20.532Z,2.95
2022-09-15T14:17:24.006Z,2.80
2022-09-15T14:19:31.257Z,3.42
2022-09-15T14:21:34.489Z,2.67
2022-09-15T14:23:43.699Z,2.83
2022-09-15T14:25:45.662Z,2.75
2022-09-15T14:27:49.723Z,3.43
2022-09-15T14:29:55.207Z,3.10
2022-09-15T14:32:00.680Z,3.33
2022-09-15T14:34:03.535Z,3.58
2022-09-15T14:38:06.801Z,3.17
2022-09-15T14:40:19.408Z,2.90
2022-09-15T14:42:33.586Z,2.70
2022-09-15T14:47:01.087Z,3.28
2022-09-15T14:49:12.179Z,3.13
2022-09-15T14:51:20.641Z,3.28
2022-09-15T14:53:24.949Z,2.88
2022-09-15T14:55:50.571Z,3.10
2022-09-15T14:57:57.665Z,2.88
2022-09-15T15:00:07.191Z,2.85
2022-09-15T15:02:32.271Z,2.83
2022-09-15T15:04:41.462Z,3.20
2022-09-15T15:07:02.000Z,2.40
2022-09-15T15:09:17.741Z,2.70
2022-09-15T15:11:19.822Z,2.92
2022-09-15T15:13:21.883Z,3.20
2022-09-15T15:15:23.782Z,2.95
2022-09-15T15:17:33.130Z,2.72
2022-09-15T15:19:37.572Z,2.95
2022-09-15T15:21:43.949Z,2.90
2022-09-15T15:23:46.949Z,3.05
2022-09-15T15:25:49.363Z,3.28
2022-09-15T15:27:52.711Z,3.38
2022-09-15T15:29:54.214Z,3.30
2022-09-15T15:32:06.071Z,3.05
2022-09-15T15:34:21.367Z,3.75
2022-09-15T15:36:23.996Z,3.05
2022-09-15T15:38:27.010Z,3.65
2022-09-15T15:40:29.019Z,3.40
2022-09-15T15:42:30.797Z,3.25
2022-09-15T15:44:32.706Z,3.05
2022-09-15T15:46:44.668Z,3.58
2022-09-15T15:48:49.904Z,3.40
2022-09-15T15:50:52.399Z,4.07
2022-09-15T15:52:54.298Z,4.03
2022-09-15T15:54:55.893Z,8.18
2022-09-15T15:57:04.428Z,2.85
2022-09-15T15:59:06.255Z,3.63
2022-09-15T16:01:11.441Z,3.47
2022-09-15T16:03:14.040Z,3.42
2022-09-15T16:05:15.892Z,3.75
2022-09-15T16:07:19.900Z,3.70
2022-09-15T16:09:21.562Z,3.50
2022-09-15T16:11:23.835Z,3.33
2022-09-15T16:13:25.856Z,4.10
2022-09-15T16:15:27.575Z,7.07
2022-09-15T16:17:29.398Z,3.58
2022-09-15T16:19:31.100Z,3.40
2022-09-15T16:21:37.908Z,3.15
2022-09-15T16:23:41.012Z,3.55
2022-09-15T16:25:50.435Z,3.80
2022-09-15T16:27:52.528Z,3.67
2022-09-15T16:29:54.292Z,3.40
2022-09-15T16:31:56.046Z,3.65
2022-09-15T16:33:57.611Z,3.78
2022-09-15T16:36:07.188Z,4.07
2022-09-15T16:38:09.158Z,3.97
2022-09-15T16:40:10.913Z,4.10
2022-09-15T16:42:12.848Z,3.90
2022-09-15T16:44:17.562Z,4.60
2022-09-15T16:46:19.173Z,4.00
2022-09-15T16:48:23.120Z,3.72
2022-09-15T16:50:25.220Z,4.20
2022-09-15T16:52:26.814Z,4.70
2022-09-15T16:54:28.654Z,4.15
2022-09-15T16:56:30.198Z,4.68
2022-09-15T16:58:31.952Z,5.15
2022-09-15T17:00:35.143Z,4.38
2022-09-15T17:02:36.915Z,4.43
2022-09-15T17:04:38.459Z,4.50
2022-09-15T17:06:40.391Z,4.90
2022-09-15T17:08:42.351Z,4.65
2022-09-15T17:10:44.228Z,4.05
2022-09-15T17:12:46.586Z,4.57
2022-09-15T17:14:49.022Z,5.05
2022-09-15T17:16:52.770Z,4.70
2022-09-15T17:18:55.732Z,5.20
2022-09-15T17:22:59.174Z,5.13
2022-09-15T17:25:01.080Z,5.15
2022-09-15T17:27:02.691Z,5.00
2022-09-15T17:29:04.363Z,4.82
2022-09-15T17:31:15.320Z,5.68
2022-09-15T17:33:18.467Z,4.70
2022-09-15T17:37:21.771Z,5.90
2022-09-15T17:39:23.918Z,12.97
2022-09-15T17:41:25.481Z,4.70
2022-09-15T17:43:29.501Z,4.07
2022-09-15T17:47:34.137Z,4.88
2022-09-15T17:49:36.054Z,4.85
2022-09-15T17:51:38.131Z,4.53
2022-09-15T17:53:40.344Z,5.13
2022-09-15T17:55:43.001Z,5.20
2022-09-15T17:57:45.325Z,5.07
2022-09-15T17:59:47.386Z,5.00
2022-09-15T18:01:49.324Z,4.80
2022-09-15T18:03:51.123Z,5.55
2022-09-15T18:05:52.742Z,5.97
2022-09-15T18:07:55.877Z,5.70
2022-09-15T18:09:57.917Z,5.70
2022-09-15T18:11:59.969Z,5.82
2022-09-15T18:14:01.766Z,5.53
2022-09-15T18:16:04.680Z,6.82
2022-09-15T18:20:15.292Z,5.95
2022-09-15T18:22:17.011Z,7.05
2022-09-15T18:24:18.842Z,6.43
2022-09-15T18:26:23.876Z,6.80
2022-09-15T18:28:28.686Z,7.10
2022-09-15T18:30:31.677Z,6.70
2022-09-15T18:32:34.326Z,26.10
2022-09-15T18:34:37.091Z,10.40
2022-09-15T18:36:40.756Z,25.92
2022-09-15T18:38:42.636Z,7.40
2022-09-15T18:40:49.743Z,7.03
2022-09-15T18:42:51.666Z,6.95
2022-09-15T18:44:53.716Z,6.72
2022-09-15T18:46:55.482Z,7.85
2022-09-15T18:48:57.320Z,6.30
2022-09-15T18:50:59.181Z,6.53
2022-09-15T18:53:01.115Z,6.65
2022-09-15T18:55:03.811Z,6.57
2022-09-15T18:57:05.724Z,6.95
2022-09-15T18:59:07.641Z,6.60
2022-09-15T19:01:09.252Z,7.32
2022-09-15T19:03:11.261Z,7.88
2022-09-15T19:05:16.416Z,7.15
2022-09-15T19:07:18.995Z,7.13
2022-09-15T19:09:21.351Z,7.18
2022-09-15T19:11:23.060Z,6.80
2022-09-15T19:13:25.068Z,6.90
2022-09-15T19:17:31.076Z,6.57
2022-09-15T19:19:33.417Z,7.70
2022-09-15T19:21:35.927Z,7.60
2022-09-15T19:23:38.002Z,7.18
2022-09-15T19:25:42.759Z,7.10
2022-09-15T19:27:45.091Z,7.35
2022-09-15T19:29:49.756Z,7.35
2022-09-15T19:31:51.623Z,7.32
2022-09-15T19:33:53.871Z,7.40
2022-09-15T19:36:10.828Z,7.83
2022-09-15T19:38:17.490Z,7.22
2022-09-15T19:40:21.615Z,7.30
2022-09-15T19:42:23.254Z,7.32
2022-09-15T19:44:25.036Z,7.35
2022-09-15T19:46:26.985Z,7.97
2022-09-15T19:48:28.962Z,6.80
2022-09-15T19:50:31.494Z,7.47
2022-09-15T19:52:34.198Z,6.78
2022-09-15T19:54:36.239Z,6.70
2022-09-15T19:56:38.601Z,7.70
2022-09-15T19:58:40.838Z,7.15
2022-09-15T20:00:42.514Z,7.30
2022-09-15T20:02:47.004Z,7.95
2022-09-15T20:04:50.275Z,7.93
2022-09-15T20:08:54.151Z,7.60
2022-09-15T20:10:56.015Z,7.68
2022-09-15T20:12:57.615Z,7.65
2022-09-15T20:14:59.297Z,7.22
2022-09-15T20:17:01.878Z,7.80
2022-09-15T20:19:04.998Z,8.30
2022-09-15T20:23:15.452Z,22.98
2022-09-15T20:27:19.732Z,11.52
2022-09-15T20:29:21.553Z,8.40
2022-09-15T20:31:24.448Z,8.05
2022-09-15T20:33:27.235Z,8.40
2022-09-15T20:35:29.076Z,7.75
2022-09-15T20:37:35.257Z,8.07
2022-09-15T20:39:39.054Z,8.38
2022-09-15T20:41:44.847Z,8.18
2022-09-15T20:43:46.834Z,8.20
2022-09-15T20:46:15.315Z,8.38
2022-09-15T20:48:17.761Z,8.65
2022-09-15T20:50:20.479Z,7.75
2022-09-15T20:52:22.126Z,7.55
2022-09-15T20:56:27.976Z,8.55
2022-09-15T21:00:33.995Z,8.13
2022-09-15T21:02:36.346Z,8.90
2022-09-15T21:04:38.056Z,8.65
2022-09-15T21:06:40.095Z,8.48
2022-09-15T21:08:41.978Z,8.18
2022-09-15T21:10:44.749Z,8.38
2022-09-15T21:12:46.522Z,9.15
2022-09-15T21:14:48.928Z,8.95
2022-09-15T21:16:50.838Z,9.35
2022-09-15T21:18:52.840Z,8.55
2022-09-15T21:20:55.298Z,9.20
2022-09-15T21:22:57.688Z,8.60
2022-09-15T21:25:00.077Z,50.10
2022-09-15T21:27:21.052Z,84.43
2022-09-15T21:29:23.400Z,24.23
2022-09-15T21:31:29.393Z,9.85
2022-09-15T21:33:31.113Z,9.57
2022-09-15T21:35:33.607Z,9.68
2022-09-15T21:37:35.353Z,9.85
2022-09-15T21:39:36.942Z,9.98
2022-09-15T21:41:38.543Z,9.55
2022-09-15T21:43:41.375Z,10.18
2022-09-15T21:45:43.380Z,10.20
2022-09-15T21:47:45.158Z,10.63
2022-09-15T21:49:47.173Z,10.15
2022-09-15T21:51:49.518Z,10.88
2022-09-15T21:53:52.108Z,11.18
2022-09-15T21:55:54.110Z,10.60
2022-09-15T21:57:56.172Z,10.33
2022-09-15T21:59:57.718Z,10.00
2022-09-15T22:01:59.685Z,10.70
2022-09-15T22:04:02.895Z,10.75
2022-09-15T22:06:04.541Z,10.60
2022-09-15T22:08:08.025Z,10.60
2022-09-15T22:10:09.724Z,10.70
2022-09-15T22:12:11.387Z,10.13
2022-09-15T22:14:14.255Z,10.85
2022-09-15T22:16:17.382Z,11.13
2022-09-15T22:18:19.539Z,11.57
2022-09-15T22:20:22.085Z,10.10
2022-09-15T22:22:23.733Z,11.23
2022-09-15T22:24:25.543Z,10.93
2022-09-15T22:26:29.020Z,10.50
2022-09-15T22:28:31.206Z,10.85
2022-09-15T22:30:32.816Z,11.43
2022-09-15T22:32:34.898Z,11.60
2022-09-15T22:34:36.431Z,11.77
2022-09-15T22:36:38.217Z,11.27
2022-09-15T22:38:40.000Z,11.40
2022-09-15T22:40:41.829Z,11.60
2022-09-15T22:42:43.381Z,11.25
2022-09-15T22:44:46.156Z,12.52
2022-09-15T22:46:49.630Z,32.55
2022-09-15T22:48:51.345Z,51.35
2022-09-15T22:50:53.203Z,18.48
2022-09-15T22:52:55.436Z,12.93
2022-09-15T22:54:56.973Z,13.07
2022-09-15T22:56:58.966Z,13.30
2022-09-15T22:59:00.797Z,13.73
2022-09-15T23:01:06.591Z,12.85
2022-09-15T23:03:08.796Z,13.13
2022-09-15T23:05:10.768Z,12.60
2022-09-15T23:07:12.536Z,12.50
2022-09-15T23:09:14.549Z,11.82
2022-09-15T23:11:16.176Z,13.35
2022-09-15T23:13:18.041Z,12.50
2022-09-15T23:15:19.877Z,11.57
2022-09-15T23:17:21.473Z,11.77
2022-09-15T23:19:22.994Z,11.80
2022-09-15T23:21:25.353Z,13.40
2022-09-15T23:23:27.036Z,12.93
2022-09-15T23:25:28.574Z,13.88
2022-09-15T23:27:30.341Z,14.55
2022-09-15T23:29:32.397Z,12.77
2022-09-15T23:31:34.172Z,13.10
2022-09-15T23:33:36.288Z,12.15
2022-09-15T23:35:38.042Z,13.80
2022-09-15T23:37:39.798Z,13.13
2022-09-15T23:39:41.857Z,12.43
2022-09-15T23:41:43.579Z,13.68
2022-09-15T23:43:45.590Z,12.27
2022-09-15T23:45:47.493Z,13.77
2022-09-15T23:47:49.218Z,12.07
2022-09-15T23:49:50.765Z,12.45
2022-09-15T23:51:52.978Z,12.07
2022-09-15T23:53:55.192Z,11.10
2022-09-15T23:55:56.770Z,11.20
2022-09-15T23:57:58.556Z,11.27
